Ana Sayfa
METAR-TAF:

METAR-TAF

Havaalanları :

Fort Hood / Killeen, Teksas, Amerika Birleşik Devletleri

Enlem: 31-06N, Boylam: 097-20W, yükseklik: 283 m

Güncel hava durumu gözlemi

Rapor saat 23:58 UTC de 51 dakika önce yapıldı.
Rüzgar güneydan 12 kt
Sıcaklık 35°C
Nem 47%
Basınç 1005 hPa
Görüş mesafesi: 16.1 km
Açık gökyüzü

METAR: KHLR 192358Z AUTO 18012KT 10SM CLR 35/22 A2967 RMK AO2 SLP033 T03460224 10363 20335 57013

Saat: 18:49 (00:49 UTC)


TAF: eksik

4.000'den fazla havaalanı için hava durumu gözlemleri ve tahminleri (METAR ve TAF raporları).

Kullanılabilir istasyonlar harita üzerinde sarı ve kırmızı noktalarla gösterilir.

İstasyonun adını görmek için fareyi noktanın üzerinde gezdirin.

Sonrasında hava gözlem ve tahminlerini görmek için tıklayın.

Haritayı değiştirmek için: yaklaştırmak için siyah artı işaretli yeşil düğmeye ve uzaklaştırmak için de eksi işaretli düğmeye hızla tıklayın; bitişik haritalar için yeşil okları kullanın.


METAR-TAF: